sensor_id;sensor_type;location;lat;lon;timestamp;pressure;altitude;pressure_sealevel;temperature;humidity
71642;BME280;60657;50.122;14.468;2023-01-28T00:01:40;98882.6965649785;;;1.3756008239871846;83.3339436942092
71642;BME280;60657;50.122;14.468;2023-01-28T00:04:42;98881.32548332396;;;1.4263370717936965;83.1145952544442
71642;BME280;60657;50.122;14.468;2023-01-28T00:07:47;98879.58566214087;;;1.3969634546425596;83.13557640955214
71642;BME280;60657;50.122;14.468;2023-01-28T00:10:50;98873.89505156357;;;1.378271152819103;82.97154192416266
71642;BME280;60657;50.122;14.468;2023-01-28T00:13:52;98877.00650774137;;;1.437018387121384;83.06691081101701
71642;BME280;60657;50.122;14.468;2023-01-28T00:16:59;98874.73424109876;;;1.4690623331044463;82.8323033493553
71642;BME280;60657;50.122;14.468;2023-01-28T00:20:01;98869.76036326642;;;1.4209964141298528;82.98870832379644
71642;BME280;60657;50.122;14.468;2023-01-28T00:23:04;98864.13054197337;;;1.3756008239871846;82.94102388036927
71642;BME280;60657;50.122;14.468;2023-01-28T00:26:06;98877.12933430348;;;1.3462272068360406;82.99252307927061
71642;BME280;60657;50.122;14.468;2023-01-28T00:29:12;98875.695639498;;;1.4690623331044463;82.85137712672618
71642;BME280;60657;50.122;14.468;2023-01-28T00:32:14;98877.49585529389;;;1.4904249637598213;82.7445639734493
71642;BME280;60657;50.122;14.468;2023-01-28T00:35:16;98869.10433240345;;;1.4637216754406026;82.87426565957122
71642;BME280;60657;50.122;14.468;2023-01-28T00:38:18;98870.84346728702;;;1.4316777294575402;82.99252307927061
71642;BME280;60657;50.122;14.468;2023-01-28T00:41:21;98870.72165909203;;;1.3649195086594972;83.05355916685741
71642;BME280;60657;50.122;14.468;2023-01-28T00:44:25;98872.99461807788;;;1.3435568780041223;83.15274280918594
71642;BME280;60657;50.122;14.468;2023-01-28T00:47:27;98880.24038989824;;;1.3622491798275718;83.07454032196536
71642;BME280;60657;50.122;14.468;2023-01-28T00:50:29;98870.53833466738;;;1.370260166323341;83.07072556649119
71642;BME280;60657;50.122;14.468;2023-01-28T00:53:31;98880.89443402312;;;1.3916227969787158;83.04783703364615
71642;BME280;60657;50.122;14.468;2023-01-28T00:56:34;98874.36562182684;;;1.3328755626764348;83.23857480735485
71642;BME280;60657;50.122;14.468;2023-01-28T00:59:36;98870.41571036649;;;1.378271152819103;83.18326085297933
71642;BME280;60657;50.122;14.468;2023-01-28T01:02:38;98873.1170326204;;;1.4450293736171531;82.99252307927061
71642;BME280;60657;50.122;14.468;2023-01-28T01:05:42;98870.29275970766;;;1.3462272068360406;83.29961089494164
71642;BME280;60657;50.122;14.468;2023-01-28T01:08:45;98876.63607003378;;;1.3061722743572162;83.16990920881972
71642;BME280;60657;50.122;14.468;2023-01-28T01:11:47;98881.54779463298;;;1.3408865491721969;83.25764858472571
71642;BME280;60657;50.122;14.468;2023-01-28T01:14:49;98878.90543639315;;;1.260776684214541;83.482719157702
71642;BME280;60657;50.122;14.468;2023-01-28T01:17:51;98871.2548989192;;;1.378271152819103;83.13939116502632
71642;BME280;60657;50.122;14.468;2023-01-28T01:20:53;98885.39906410183;;;1.4423590447852277;82.91050583657588
71642;BME280;60657;50.122;14.468;2023-01-28T01:23:55;98890.90445231712;;;1.3435568780041223;83.03830014496071
71642;BME280;60657;50.122;14.468;2023-01-28T01:26:57;98891.86733251561;;;1.3622491798275718;82.96963454642557
71642;BME280;60657;50.122;14.468;2023-01-28T01:29:59;98900.729278911;;;1.378271152819103;83.23476005188067
71642;BME280;60657;50.122;14.468;2023-01-28T01:33:02;98890.18866016669;;;1.3889524681467904;83.06118867780576
71642;BME280;60657;50.122;14.468;2023-01-28T01:36:04;98895.5931610553;;;1.4690623331044463;82.98680094605936
71642;BME280;60657;50.122;14.468;2023-01-28T01:39:08;98904.27283816476;;;1.4530403601129152;82.82848859388113
71642;BME280;60657;50.122;14.468;2023-01-28T01:42:12;98911.51811323281;;;1.429007400625622;83.05928130006866
71642;BME280;60657;50.122;14.468;2023-01-28T01:45:15;98913.84989388946;;;1.3435568780041223;83.06118867780576
71642;BME280;60657;50.122;14.468;2023-01-28T01:48:18;98900.729278911;;;1.3729304951552592;83.18516823071641
71642;BME280;60657;50.122;14.468;2023-01-28T01:51:27;98906.72930552435;;;1.4824139772640592;82.98870832379644
71642;BME280;60657;50.122;14.468;2023-01-28T01:54:35;98907.50685176534;;;1.370260166323341;83.17563134203098
71642;BME280;60657;50.122;14.468;2023-01-28T01:57:41;98900.07576245704;;;1.3756008239871846;83.0840772106508
71642;BME280;60657;50.122;14.468;2023-01-28T02:00:47;98911.51811323281;;;1.4530403601129152;82.99252307927061
71642;BME280;60657;50.122;14.468;2023-01-28T02:03:51;98899.88984875001;;;1.3916227969787158;83.15846494239719
71642;BME280;60657;50.122;14.468;2023-01-28T02:07:00;98902.47018117513;;;1.3889524681467904;83.38544289311055
71642;BME280;60657;50.122;14.468;2023-01-28T02:10:03;98904.27283816476;;;1.4717326619363718;83.10887312123293
71642;BME280;60657;50.122;14.468;2023-01-28T02:13:08;98903.12330577466;;;1.437018387121384;83.36636911573969
71642;BME280;60657;50.122;14.468;2023-01-28T02:16:10;98903.90050913974;;;1.356908522163728;83.50179293507286
71642;BME280;60657;50.122;14.468;2023-01-28T02:19:14;98906.35662655153;;;1.3408865491721969;83.28244449530786
71642;BME280;60657;50.122;14.468;2023-01-28T02:22:28;98901.69270624072;;;1.4209964141298528;83.21377889677272
71642;BME280;60657;50.122;14.468;2023-01-28T02:26:11;98910.08712087323;;;1.4824139772640592;83.03639276722362
71642;BME280;60657;50.122;14.468;2023-01-28T02:29:29;98914.09872007945;;;1.4530403601129152;82.96772716868848
71642;BME280;60657;50.122;14.468;2023-01-28T02:32:45;98902.77910493437;;;1.4423590447852277;82.85519188220034
71642;BME280;60657;50.122;14.468;2023-01-28T02:35:56;98901.03868829856;;;1.5117875944151962;83.19470511940185
71642;BME280;60657;50.122;14.468;2023-01-28T02:39:11;98905.11226568038;;;1.47440299076829;83.0840772106508
71642;BME280;60657;50.122;14.468;2023-01-28T02:42:20;98910.57920710804;;;1.5865568017090084;82.69878690775921
71642;BME280;60657;50.122;14.468;2023-01-28T02:45:27;98917.04939713472;;;1.5037766079194341;82.89524681467918
71642;BME280;60657;50.122;14.468;2023-01-28T02:48:34;98910.92658502063;;;1.5571831845578714;83.07263294422827
71642;BME280;60657;50.122;14.468;2023-01-28T02:51:43;98913.1971242392;;;1.4049744411383216;83.06309605554284
71642;BME280;60657;50.122;14.468;2023-01-28T02:55:01;98912.94794065213;;;1.386282139314872;83.46936751354238
71642;BME280;60657;50.122;14.468;2023-01-28T02:58:15;98919.66439790998;;;1.3756008239871846;83.17944609750515
71642;BME280;60657;50.122;14.468;2023-01-28T03:01:29;98908.34631130195;;;1.5037766079194341;83.22522316319524
71642;BME280;60657;50.122;14.468;2023-01-28T03:04:44;98911.1732502045;;;1.5278095674067274;83.06309605554284
71642;BME280;60657;50.122;14.468;2023-01-28T03:07:54;98905.60407177717;;;1.58388647287709;82.9066910811017
71642;BME280;60657;50.122;14.468;2023-01-28T03:10:58;98918.66685945803;;;1.5651941710536335;82.847562371252
71642;BME280;60657;50.122;14.468;2023-01-28T03:14:00;98903.4951917697;;;1.4557106889448406;83.10696574349585
71642;BME280;60657;50.122;14.468;2023-01-28T03:17:02;98913.69157416286;;;1.554512855725946;82.86472877088579
71642;BME280;60657;50.122;14.468;2023-01-28T03:20:10;98907.34390765066;;;1.5491721980621023;82.77317463950561
71642;BME280;60657;50.122;14.468;2023-01-28T03:23:16;98913.69157416286;;;1.554512855725946;82.90287632562753
71642;BME280;60657;50.122;14.468;2023-01-28T03:26:26;98914.3462405218;;;1.4530403601129152;82.98298619058518
71642;BME280;60657;50.122;14.468;2023-01-28T03:29:36;98912.25801517961;;;1.5785458152132463;82.95628290226597
71642;BME280;60657;50.122;14.468;2023-01-28T03:32:42;98908.12219257747;;;1.5812161440451646;82.75028610666057
71642;BME280;60657;50.122;14.468;2023-01-28T03:35:46;98914.05898249238;;;1.6506446936751331;82.78461890592813
71642;BME280;60657;50.122;14.468;2023-01-28T03:38:50;98915.49324241007;;;1.6025787747005396;82.77698939497978
71642;BME280;60657;50.122;14.468;2023-01-28T03:42:01;98927.53134384858;;;1.5865568017090084;82.90859845883878
71642;BME280;60657;50.122;14.468;2023-01-28T03:45:06;98920.65230266193;;;1.6025787747005396;82.79987792782482
71642;BME280;60657;50.122;14.468;2023-01-28T03:48:08;98928.2684933062;;;1.7334248874647145;82.49279011215381
71642;BME280;60657;50.122;14.468;2023-01-28T03:51:11;98935.51860164644;;;1.7067215991454958;82.5385671778439
71642;BME280;60657;50.122;14.468;2023-01-28T03:54:13;98924.132088858;;;1.7254139009689453;82.52903028915847
71642;BME280;60657;50.122;14.468;2023-01-28T03:57:16;98924.84960082188;;;1.6372930495155273;82.54619668879225
71642;BME280;60657;50.122;14.468;2023-01-28T04:00:20;98920.65230266193;;;1.6586556801709023;82.61867704280155
71642;BME280;60657;50.122;14.468;2023-01-28T04:03:23;98920.16096277458;;;1.5037766079194341;82.94102388036927
71642;BME280;60657;50.122;14.468;2023-01-28T04:06:25;98929.76432080426;;;1.7093919279774141;82.61867704280155
71642;BME280;60657;50.122;14.468;2023-01-28T04:09:28;98930.11193327246;;;1.5678644998855589;82.67589837491417
71642;BME280;60657;50.122;14.468;2023-01-28T04:12:30;98925.25976298272;;;1.5598535133897897;82.92957961394674
71642;BME280;60657;50.122;14.468;2023-01-28T04:15:32;98924.0101329557;;;1.6800183108262772;82.57671473258564
71642;BME280;60657;50.122;14.468;2023-01-28T04:18:34;98928.2684933062;;;1.6987106126497267;82.38406958113985
71642;BME280;60657;50.122;14.468;2023-01-28T04:21:36;98933.83950069074;;;1.6399633783474457;82.71023117418173
71642;BME280;60657;50.122;14.468;2023-01-28T04:24:38;98929.76432080426;;;1.634622720683602;82.50995651178759
71642;BME280;60657;50.122;14.468;2023-01-28T04:27:40;98928.92481266154;;;1.6613260090028206;82.64919508659494
71642;BME280;60657;50.122;14.468;2023-01-28T04:30:42;98924.07115175782;;;1.7120622568093395;82.53284504463264
71642;BME280;60657;50.122;14.468;2023-01-28T04:33:45;98932.09906680093;;;1.6613260090028206;82.49851224536508
71642;BME280;60657;50.122;14.468;2023-01-28T04:36:47;98938.38426885409;;;1.6399633783474457;82.79987792782482
71642;BME280;60657;50.122;14.468;2023-01-28T04:39:49;98941.86640896782;;;1.634622720683602;82.67399099717709
71642;BME280;60657;50.122;14.468;2023-01-28T04:42:52;98948.46016535751;;;1.6399633783474457;82.70450904097048
71642;BME280;60657;50.122;14.468;2023-01-28T04:45:57;98940.06354373848;;;1.6186007476920707;82.74074921797512
71642;BME280;60657;50.122;14.468;2023-01-28T04:49:00;98935.3958834343;;;1.6586556801709023;82.60914015411612
71642;BME280;60657;50.122;14.468;2023-01-28T04:52:02;98942.58248696747;;;1.6266117341878399;82.66636148622874
71642;BME280;60657;50.122;14.468;2023-01-28T04:55:05;98943.42214295047;;;1.6666666666666643;82.76745250629435
71642;BME280;60657;50.122;14.468;2023-01-28T04:58:08;98944.44697130822;;;1.6746776531624334;82.69306477454795
71642;BME280;60657;50.122;14.468;2023-01-28T05:01:10;98949.48487832813;;;1.7067215991454958;82.63202868696116
71642;BME280;60657;50.122;14.468;2023-01-28T05:04:12;98950.1395391118;;;1.642633707179371;82.66636148622874
71642;BME280;60657;50.122;14.468;2023-01-28T05:07:14;98951.10263482062;;;1.6880292973220392;82.69306477454795
71642;BME280;60657;50.122;14.468;2023-01-28T05:10:17;98953.6832473959;;;1.7067215991454958;82.52903028915847
71642;BME280;60657;50.122;14.468;2023-01-28T05:13:19;98947.08889663985;;;1.7574578469520077;82.34019989318685
71642;BME280;60657;50.122;14.468;2023-01-28T05:16:21;98958.65991743906;;;1.722743572137027;82.34019989318685
71642;BME280;60657;50.122;14.468;2023-01-28T05:19:23;98952.55434895598;;;1.8642710002288823;82.17616540779736
71642;BME280;60657;50.122;14.468;2023-01-28T05:22:26;98956.32513717687;;;1.7200732433051016;82.14755474174106
71642;BME280;60657;50.122;14.468;2023-01-28T05:25:28;98955.05410764989;;;1.6666666666666643;82.67780575265125
71642;BME280;60657;50.122;14.468;2023-01-28T05:28:30;98948.82953309725;;;1.7414358739604765;82.35355153734646
71642;BME280;60657;50.122;14.468;2023-01-28T05:31:32;98950.57007312957;;;1.781490806439308;82.35545891508355
71642;BME280;60657;50.122;14.468;2023-01-28T05:34:35;98962.54997763482;;;1.6666666666666643;82.49279011215381
71642;BME280;60657;50.122;14.468;2023-01-28T05:37:37;98956.91888652282;;;1.7093919279774141;82.49088273441673
71642;BME280;60657;50.122;14.468;2023-01-28T05:40:39;98958.41306568644;;;1.672007324330508;82.759822995346
71642;BME280;60657;50.122;14.468;2023-01-28T05:43:41;98966.74890970277;;;1.7360952162966328;82.63393606469825
71642;BME280;60657;50.122;14.468;2023-01-28T05:46:44;98969.92221478498;;;1.693369954985883;82.8494697489891
71642;BME280;60657;50.122;14.468;2023-01-28T05:49:48;98963.6982910675;;;1.722743572137027;82.6110475318532
71642;BME280;60657;50.122;14.468;2023-01-28T05:52:50;98962.26423631719;;;1.781490806439308;82.2734416723888
71642;BME280;60657;50.122;14.468;2023-01-28T05:55:52;98966.93418250543;;;1.7414358739604765;82.52521553368429
71642;BME280;60657;50.122;14.468;2023-01-28T05:58:54;98970.7620533805;;;1.642633707179371;82.49279011215381
71642;BME280;60657;50.122;14.468;2023-01-28T06:01:57;98969.08238030745;;;1.7067215991454958;82.38216220340276
71642;BME280;60657;50.122;14.468;2023-01-28T06:04:59;98970.16993761166;;;1.7494468604562456;82.2295719844358
71642;BME280;60657;50.122;14.468;2023-01-28T06:08:01;98966.93418250543;;;1.7948424505989138;82.02357518883039
71642;BME280;60657;50.122;14.468;2023-01-28T06:11:04;98975.55235946992;;;1.6800183108262772;82.05027847714962
71642;BME280;60657;50.122;14.468;2023-01-28T06:14:06;98991.85081364475;;;1.5865568017090084;82.53284504463264
71642;BME280;60657;50.122;14.468;2023-01-28T06:17:09;98984.66674526954;;;1.6960402838178084;82.39932860303655
71642;BME280;60657;50.122;14.468;2023-01-28T06:20:11;98989.83119502914;;;1.7841611352712263;82.29251544975968
71642;BME280;60657;50.122;14.468;2023-01-28T06:23:13;98984.075944025;;;1.730754558632789;82.1704432745861
71642;BME280;60657;50.122;14.468;2023-01-28T06:26:15;99002.11954855702;;;1.752117189288164;82.06935225452048
71642;BME280;60657;50.122;14.468;2023-01-28T06:29:17;98996.17655796923;;;1.6559853513389768;82.32112611581597
71642;BME280;60657;50.122;14.468;2023-01-28T06:32:20;99001.93160381846;;;1.6479743648432148;82.02166781109331
71642;BME280;60657;50.122;14.468;2023-01-28T06:35:22;99003.20903566887;;;1.78950179293507;81.67643244068056
71642;BME280;60657;50.122;14.468;2023-01-28T06:38:24;98994.09323315432;;;1.8055237659266012;81.19386587319752
71642;BME280;60657;50.122;14.468;2023-01-28T06:41:26;99002.05698201188;;;1.6773479819943518;81.13092240787365
71642;BME280;60657;50.122;14.468;2023-01-28T06:44:29;99006.25740842035;;;1.730754558632789;81.23392080567636
71642;BME280;60657;50.122;14.468;2023-01-28T06:47:31;99005.6046759027;;;1.8322270542458199;80.94972152285038
71642;BME280;60657;50.122;14.468;2023-01-28T06:50:33;99008.000119808;;;1.8135347524223704;81.01838712138552
71642;BME280;60657;50.122;14.468;2023-01-28T06:53:35;99008.90264036969;;;1.8135347524223704;81.07370107576105
71642;BME280;60657;50.122;14.468;2023-01-28T06:56:37;99017.05390095085;;;1.7841611352712263;81.26253147173266
71642;BME280;60657;50.122;14.468;2023-01-28T06:59:40;99015.87213362948;;;1.9043259327077138;81.00312809948882
71642;BME280;60657;50.122;14.468;2023-01-28T07:02:42;99029.65683384944;;;1.8776226443884951;81.00503547722592
71642;BME280;60657;50.122;14.468;2023-01-28T07:05:44;99028.50298074534;;;1.8348973830777453;81.17479209582666
71642;BME280;60657;50.122;14.468;2023-01-28T07:08:46;99030.12055613237;;;1.7574578469520077;81.48760204470894
71642;BME280;60657;50.122;14.468;2023-01-28T07:11:54;99032.51529738386;;;1.7547875181200894;81.42084382391089
71642;BME280;60657;50.122;14.468;2023-01-28T07:14:57;99034.19591604178;;;1.7681391622796951;81.08705271992065
71642;BME280;60657;50.122;14.468;2023-01-28T07:17:59;99034.19591604178;;;1.7708094911116206;80.73418783855955
71642;BME280;60657;50.122;14.468;2023-01-28T07:21:02;99042.42059570903;;;1.591897459372852;80.63500419623102
71642;BME280;60657;50.122;14.468;2023-01-28T07:24:04;99048.95138678285;;;1.6186007476920707;80.65598535133898
71642;BME280;60657;50.122;14.468;2023-01-28T07:27:07;99048.3040793977;;;1.591897459372852;80.49004348821241
71642;BME280;60657;50.122;14.468;2023-01-28T07:30:09;99053.93017925903;;;1.5972381170366958;80.75135423819333
71642;BME280;60657;50.122;14.468;2023-01-28T07:33:13;99045.91079095888;;;1.4557106889448406;81.07560845349813
71642;BME280;60657;50.122;14.468;2023-01-28T07:36:16;99059.67824077894;;;1.415655756466009;80.87151903562982
71642;BME280;60657;50.122;14.468;2023-01-28T07:39:18;99060.8465145463;;;1.5384908827344148;80.62928206301976
71642;BME280;60657;50.122;14.468;2023-01-28T07:42:20;99061.10708607583;;;1.5651941710536335;80.24399176012818
71642;BME280;60657;50.122;14.468;2023-01-28T07:45:23;99064.65692748947;;;1.4530403601129152;80.20012207217518
71642;BME280;60657;50.122;14.468;2023-01-28T07:48:27;99069.89828934179;;;1.4690623331044463;80.3145647364004
71642;BME280;60657;50.122;14.468;2023-01-28T07:51:29;99059.42578282312;;;1.4930952925917467;79.87777523460745
71642;BME280;60657;50.122;14.468;2023-01-28T07:54:31;99063.68448331904;;;1.3809414816510284;80.19249256122683
71642;BME280;60657;50.122;14.468;2023-01-28T07:57:34;99067.42514042536;;;1.3355458915083531;80.25162127107653
71642;BME280;60657;50.122;14.468;2023-01-28T08:00:36;99070.85492205476;;;1.348897535667966;80.36034180209049
71642;BME280;60657;50.122;14.468;2023-01-28T08:03:40;99071.82828916043;;;1.3756008239871846;80.28213931486992
71642;BME280;60657;50.122;14.468;2023-01-28T08:06:42;99084.10999613052;;;1.3542381933318097;80.4766918440528
71642;BME280;60657;50.122;14.468;2023-01-28T08:09:44;99081.52066781148;;;1.3141832608529782;80.41565575646601
71642;BME280;60657;50.122;14.468;2023-01-28T08:12:51;99084.24276936623;;;1.4717326619363718;80.17723353933013
71642;BME280;60657;50.122;14.468;2023-01-28T08:15:55;99094.70968546484;;;1.4049744411383216;80.21538109407187
71642;BME280;60657;50.122;14.468;2023-01-28T08:18:58;99097.60463315384;;;1.2581063553826226;80.36797131303884
71642;BME280;60657;50.122;14.468;2023-01-28T08:22:00;99098.51300311922;;;1.3141832608529782;80.73037308308537
71642;BME280;60657;50.122;14.468;2023-01-28T08:25:02;99103.35775887792;;;1.3141832608529782;80.63118944075684
71642;BME280;60657;50.122;14.468;2023-01-28T08:28:05;99102.34579374884;;;1.4476997024490714;80.41374837872893
71642;BME280;60657;50.122;14.468;2023-01-28T08:31:09;99105.8430903385;;;1.5278095674067274;80.32219424734875
71642;BME280;60657;50.122;14.468;2023-01-28T08:34:11;99095.43927914785;;;1.4770733196002155;79.94644083314259
71642;BME280;60657;50.122;14.468;2023-01-28T08:37:13;99108.11964587982;;;1.591897459372852;79.91020065613795
71642;BME280;60657;50.122;14.468;2023-01-28T08:40:16;99108.89493455188;;;1.6399633783474457;79.8873121232929
71642;BME280;60657;50.122;14.468;2023-01-28T08:43:18;99108.1000129263;;;1.3622491798275718;79.40665293354697
71642;BME280;60657;50.122;14.468;2023-01-28T08:46:20;99120.65038793029;;;1.495765621423665;79.80910963607232
71642;BME280;60657;50.122;14.468;2023-01-28T08:49:23;99118.2601639034;;;1.4904249637598213;79.11482413977264
71642;BME280;60657;50.122;14.468;2023-01-28T08:52:25;99116.97585435875;;;1.5678644998855589;79.32463569085222
71642;BME280;60657;50.122;14.468;2023-01-28T08:55:28;99128.48698471574;;;1.5678644998855589;79.59739070725567
71642;BME280;60657;50.122;14.468;2023-01-28T08:58:31;99126.53870869613;;;1.613260090028227;79.40856031128405
71642;BME280;60657;50.122;14.468;2023-01-28T09:01:34;99135.32428204935;;;1.4450293736171531;79.69085221637293
71642;BME280;60657;50.122;14.468;2023-01-28T09:04:36;99132.59856550809;;;1.386282139314872;79.72137026016632
71642;BME280;60657;50.122;14.468;2023-01-28T09:07:38;99136.39956226031;;;1.3382162203402785;79.75188830395972
71642;BME280;60657;50.122;14.468;2023-01-28T09:10:41;99139.83289504297;;;1.4103150988021653;79.54207675288013
71642;BME280;60657;50.122;14.468;2023-01-28T09:13:44;99142.15357693253;;;1.3542381933318097;79.53444724193179
71642;BME280;60657;50.122;14.468;2023-01-28T09:16:46;99145.31516426135;;;1.2714579995422284;79.50774395361258
71642;BME280;60657;50.122;14.468;2023-01-28T09:19:49;99142.28932868497;;;1.4236667429617782;78.96604867627985
71642;BME280;60657;50.122;14.468;2023-01-28T09:22:52;99149.02073834628;;;1.378271152819103;78.7238117036698
71642;BME280;60657;50.122;14.468;2023-01-28T09:25:58;99150.26706307023;;;1.4530403601129152;78.19737544823377
71642;BME280;60657;50.122;14.468;2023-01-28T09:29:01;99150.46840159394;;;1.554512855725946;78.0314335851072
71642;BME280;60657;50.122;14.468;2023-01-28T09:32:05;99156.29116569686;;;1.5972381170366958;78.21263447013047
71642;BME280;60657;50.122;14.468;2023-01-28T09:35:07;99148.7186088381;;;1.5571831845578714;77.89219501029984
71642;BME280;60657;50.122;14.468;2023-01-28T09:38:11;99159.48442239061;;;1.4263370717936965;77.8673990997177
71642;BME280;60657;50.122;14.468;2023-01-28T09:41:18;99163.35038805199;;;1.378271152819103;77.81971465629053
71642;BME280;60657;50.122;14.468;2023-01-28T09:44:31;99156.18644576338;;;1.3355458915083531;78.1496910048066
71642;BME280;60657;50.122;14.468;2023-01-28T09:47:50;99159.84661312478;;;1.3408865491721969;78.90882734416724
71642;BME280;60657;50.122;14.468;2023-01-28T09:50:55;99157.11507224705;;;1.2500953688868535;79.37613488975357
71642;BME280;60657;50.122;14.468;2023-01-28T09:53:58;99149.38611247027;;;1.3168535896849036;79.0766765850309
71642;BME280;60657;50.122;14.468;2023-01-28T09:57:06;99157.8013293851;;;1.4450293736171531;78.68947890440222
71642;BME280;60657;50.122;14.468;2023-01-28T10:00:21;99156.75474458301;;;1.415655756466009;78.62653543907835
71642;BME280;60657;50.122;14.468;2023-01-28T10:03:32;99150.7036320914;;;1.4183260852979345;78.17067215991455
71642;BME280;60657;50.122;14.468;2023-01-28T10:06:52;99147.20220220592;;;1.4450293736171531;77.720531013962
71642;BME280;60657;50.122;14.468;2023-01-28T10:10:09;99158.36937995277;;;1.2848096437018413;77.56794079499504
71642;BME280;60657;50.122;14.468;2023-01-28T10:13:20;99154.29853180017;;;1.2821393148699158;77.83497367818723
71642;BME280;60657;50.122;14.468;2023-01-28T10:16:39;99162.09583679195;;;1.1673151750972792;77.720531013962
71642;BME280;60657;50.122;14.468;2023-01-28T10:19:52;99164.20507413532;;;1.1913481345845724;78.42244602121004
71642;BME280;60657;50.122;14.468;2023-01-28T10:23:03;99158.66012129537;;;1.2046997787441853;78.04287785152972
71642;BME280;60657;50.122;14.468;2023-01-28T10:26:15;99158.31319964047;;;1.100556954299229;78.59983215075914
71642;BME280;60657;50.122;14.468;2023-01-28T10:29:25;99158.17386089194;;;1.0364690623331043;78.55596246280614
71642;BME280;60657;50.122;14.468;2023-01-28T10:32:33;99161.120897548;;;1.0898756389715416;78.07148851758602
71642;BME280;60657;50.122;14.468;2023-01-28T10:35:43;99167.99144369064;;;0.8869306477454799;78.52544441901274
71642;BME280;60657;50.122;14.468;2023-01-28T10:38:46;99160.97187464712;;;0.873579003585867;78.9889372091249
71642;BME280;60657;50.122;14.468;2023-01-28T10:41:48;99161.742375649;;;0.8495460440985738;78.38239108873121
71642;BME280;60657;50.122;14.468;2023-01-28T10:44:51;99169.31949513724;;;0.8228427557793552;77.9417868314641
71642;BME280;60657;50.122;14.468;2023-01-28T10:48:01;99165.52213113126;;;0.7213702601663243;78.16113527122911
71642;BME280;60657;50.122;14.468;2023-01-28T10:51:13;99181.93024545982;;;0.7587548638132304;77.70717936980239
71642;BME280;60657;50.122;14.468;2023-01-28T10:54:18;99174.0135867072;;;0.7854581521324491;77.66903181506065
71642;BME280;60657;50.122;14.468;2023-01-28T10:57:22;99189.50912759015;;;0.8308537422751172;77.69764248111696
71642;BME280;60657;50.122;14.468;2023-01-28T11:00:25;99181.08816823474;;;0.6759746700236491;77.4248874647135
71642;BME280;60657;50.122;14.468;2023-01-28T11:03:32;99184.79143714152;;;0.5985351338979186;77.39627679865721
71642;BME280;60657;50.122;14.468;2023-01-28T11:06:35;99190.9447704429;;;0.558480201419087;77.61371786068513
71642;BME280;60657;50.122;14.468;2023-01-28T11:09:37;99184.9022470853;;;0.5371175707637121;77.3676661326009